sensor_id;sensor_type;location;lat;lon;timestamp;pressure;altitude;pressure_sealevel;temperature
38249;BMP280;24045;51.138;17.126;2023-03-23T00:03:53;99624.44;;;8.23
38249;BMP280;24045;51.138;17.126;2023-03-23T00:18:57;99622.55;;;8.14
38249;BMP280;24045;51.138;17.126;2023-03-23T00:33:59;99627.63;;;8.05
38249;BMP280;24045;51.138;17.126;2023-03-23T00:49:03;99620.36;;;8.16
38249;BMP280;24045;51.138;17.126;2023-03-23T01:04:05;99612.59;;;8.19
38249;BMP280;24045;51.138;17.126;2023-03-23T01:19:07;99604.85;;;8.28
38249;BMP280;24045;51.138;17.126;2023-03-23T01:34:10;99598.94;;;8.42
38249;BMP280;24045;51.138;17.126;2023-03-23T01:49:18;99593.92;;;8.58
38249;BMP280;24045;51.138;17.126;2023-03-23T02:04:23;99573.36;;;8.70
38249;BMP280;24045;51.138;17.126;2023-03-23T02:19:53;99559.36;;;8.80
38249;BMP280;24045;51.138;17.126;2023-03-23T02:35:00;99547.47;;;8.79
38249;BMP280;24045;51.138;17.126;2023-03-23T02:50:05;99547.05;;;8.87
38249;BMP280;24045;51.138;17.126;2023-03-23T03:20:17;99537.79;;;9.11
38249;BMP280;24045;51.138;17.126;2023-03-23T03:35:22;99531.93;;;9.40
38249;BMP280;24045;51.138;17.126;2023-03-23T03:50:24;99509.81;;;9.65
38249;BMP280;24045;51.138;17.126;2023-03-23T04:05:26;99504.88;;;9.95
38249;BMP280;24045;51.138;17.126;2023-03-23T04:20:31;99500.70;;;10.09
38249;BMP280;24045;51.138;17.126;2023-03-23T04:35:33;99505.12;;;10.17
38249;BMP280;24045;51.138;17.126;2023-03-23T04:50:35;99511.26;;;10.25
38249;BMP280;24045;51.138;17.126;2023-03-23T05:05:37;99501.95;;;10.48
38249;BMP280;24045;51.138;17.126;2023-03-23T05:20:38;99497.31;;;10.74
38249;BMP280;24045;51.138;17.126;2023-03-23T05:35:40;99486.91;;;11.03
38249;BMP280;24045;51.138;17.126;2023-03-23T05:50:42;99477.70;;;11.42
38249;BMP280;24045;51.138;17.126;2023-03-23T06:05:44;99481.95;;;11.86
38249;BMP280;24045;51.138;17.126;2023-03-23T06:20:46;99480.22;;;12.29
38249;BMP280;24045;51.138;17.126;2023-03-23T06:35:48;99468.67;;;12.72
38249;BMP280;24045;51.138;17.126;2023-03-23T06:50:50;99461.38;;;13.63
38249;BMP280;24045;51.138;17.126;2023-03-23T07:05:52;99466.08;;;15.19
38249;BMP280;24045;51.138;17.126;2023-03-23T07:20:53;99457.73;;;15.69
38249;BMP280;24045;51.138;17.126;2023-03-23T07:35:58;99460.98;;;16.43
38249;BMP280;24045;51.138;17.126;2023-03-23T07:51:00;99450.77;;;16.99
38249;BMP280;24045;51.138;17.126;2023-03-23T08:06:02;99451.70;;;17.30
38249;BMP280;24045;51.138;17.126;2023-03-23T08:21:06;99445.21;;;19.30
38249;BMP280;24045;51.138;17.126;2023-03-23T08:36:10;99433.54;;;17.62
38249;BMP280;24045;51.138;17.126;2023-03-23T08:51:12;99410.36;;;19.76
38249;BMP280;24045;51.138;17.126;2023-03-23T09:06:14;99430.98;;;21.86
38249;BMP280;24045;51.138;17.126;2023-03-23T09:21:15;99439.11;;;20.98
38249;BMP280;24045;51.138;17.126;2023-03-23T09:36:17;99447.70;;;19.76
38249;BMP280;24045;51.138;17.126;2023-03-23T10:06:45;99452.79;;;19.87
38249;BMP280;24045;51.138;17.126;2023-03-23T10:21:52;99448.38;;;20.28
38249;BMP280;24045;51.138;17.126;2023-03-23T10:37:04;99453.34;;;20.57
38249;BMP280;24045;51.138;17.126;2023-03-23T11:07:33;99468.83;;;19.44
38249;BMP280;24045;51.138;17.126;2023-03-23T11:22:36;99484.38;;;18.73
38249;BMP280;24045;51.138;17.126;2023-03-23T11:37:43;99476.05;;;19.29
38249;BMP280;24045;51.138;17.126;2023-03-23T11:53:00;99480.77;;;20.12
38249;BMP280;24045;51.138;17.126;2023-03-23T12:23:42;99492.77;;;19.32
38249;BMP280;24045;51.138;17.126;2023-03-23T12:54:29;99489.40;;;18.77
38249;BMP280;24045;51.138;17.126;2023-03-23T13:25:06;99485.39;;;18.88
38249;BMP280;24045;51.138;17.126;2023-03-23T13:40:29;99492.56;;;18.68
38249;BMP280;24045;51.138;17.126;2023-03-23T13:55:41;99479.42;;;18.99
38249;BMP280;24045;51.138;17.126;2023-03-23T14:10:49;99480.63;;;18.91
38249;BMP280;24045;51.138;17.126;2023-03-23T14:25:56;99487.13;;;18.68
38249;BMP280;24045;51.138;17.126;2023-03-23T14:41:10;99489.35;;;18.22
38249;BMP280;24045;51.138;17.126;2023-03-23T14:56:15;99473.85;;;18.23
38249;BMP280;24045;51.138;17.126;2023-03-23T15:27:02;99480.47;;;18.55
38249;BMP280;24045;51.138;17.126;2023-03-23T15:41:49;99468.21;;;18.16
38249;BMP280;24045;51.138;17.126;2023-03-23T15:56:51;99452.08;;;18.05
38249;BMP280;24045;51.138;17.126;2023-03-23T16:11:53;99453.40;;;17.79
38249;BMP280;24045;51.138;17.126;2023-03-23T16:26:56;99454.84;;;17.49
38249;BMP280;24045;51.138;17.126;2023-03-23T16:41:59;99465.08;;;17.16
38249;BMP280;24045;51.138;17.126;2023-03-23T16:57:01;99473.14;;;16.85
38249;BMP280;24045;51.138;17.126;2023-03-23T17:12:05;99481.00;;;16.60
38249;BMP280;24045;51.138;17.126;2023-03-23T17:27:08;99500.30;;;16.33
38249;BMP280;24045;51.138;17.126;2023-03-23T17:42:11;99507.04;;;16.05
38249;BMP280;24045;51.138;17.126;2023-03-23T17:57:14;99515.84;;;15.73
38249;BMP280;24045;51.138;17.126;2023-03-23T18:12:17;99515.13;;;15.96
38249;BMP280;24045;51.138;17.126;2023-03-23T18:27:20;99543.58;;;16.18
38249;BMP280;24045;51.138;17.126;2023-03-23T18:42:22;99530.91;;;16.15
38249;BMP280;24045;51.138;17.126;2023-03-23T18:57:26;99551.54;;;15.98
38249;BMP280;24045;51.138;17.126;2023-03-23T19:12:29;99566.35;;;15.89
38249;BMP280;24045;51.138;17.126;2023-03-23T19:27:34;99569.53;;;15.89
38249;BMP280;24045;51.138;17.126;2023-03-23T19:42:38;99556.49;;;15.84
38249;BMP280;24045;51.138;17.126;2023-03-23T19:57:42;99568.84;;;15.79
38249;BMP280;24045;51.138;17.126;2023-03-23T20:12:45;99566.11;;;15.67
38249;BMP280;24045;51.138;17.126;2023-03-23T20:27:48;99587.54;;;15.56
38249;BMP280;24045;51.138;17.126;2023-03-23T20:42:50;99601.54;;;15.51
38249;BMP280;24045;51.138;17.126;2023-03-23T20:57:56;99606.23;;;15.40
38249;BMP280;24045;51.138;17.126;2023-03-23T21:12:58;99590.02;;;15.13
38249;BMP280;24045;51.138;17.126;2023-03-23T21:28:03;99590.42;;;14.81
38249;BMP280;24045;51.138;17.126;2023-03-23T21:43:07;99610.80;;;14.34
38249;BMP280;24045;51.138;17.126;2023-03-23T21:58:24;99618.84;;;13.86
38249;BMP280;24045;51.138;17.126;2023-03-23T22:13:29;99605.68;;;13.37
38249;BMP280;24045;51.138;17.126;2023-03-23T22:28:33;99606.77;;;12.79
38249;BMP280;24045;51.138;17.126;2023-03-23T22:43:38;99606.01;;;12.40
38249;BMP280;24045;51.138;17.126;2023-03-23T22:58:41;99604.48;;;12.01
38249;BMP280;24045;51.138;17.126;2023-03-23T23:13:45;99605.54;;;11.53
38249;BMP280;24045;51.138;17.126;2023-03-23T23:28:49;99595.54;;;11.07
38249;BMP280;24045;51.138;17.126;2023-03-23T23:43:52;99582.17;;;10.82
38249;BMP280;24045;51.138;17.126;2023-03-23T23:58:56;99580.95;;;10.89
